RA44704 LICR-LIMF
Flight info
| Callsign | RA44704 |
|---|---|
| Flight time | N/A |
| Altitude | 36000 |
| Route | RCA DCT APVAR DCT MAREP DCT NEKPI DCT ROSKI DCT IRBAK |
| Aircraft | B752/M-SDFGHIRWY/S |
Departure
| Time | 2026-04-18 10:58 |
|---|---|
| Airport | Reggio Calabria Airport (LICR) |
Arrival
| Time | N/A |
|---|---|
| Airport | Turin Airport (LIMF) |
| Time | Latitude | Longitude | Altitude | Speed | Heading |
|---|---|---|---|---|---|
| 2026-04-18 10:45 | 38.07411 | 15.65257 | 89 ft | 0 kts | 118° |
| 2026-04-18 10:52 | 38.07410 | 15.65257 | 89 ft | 0 kts | 118° |
| 2026-04-18 10:52 | 38.07406 | 15.65265 | 89 ft | 1 kts | 139° |
| 2026-04-18 10:52 | 38.07402 | 15.65266 | 89 ft | 0 kts | 170° |
| 2026-04-18 10:53 | 38.07373 | 15.65251 | 88 ft | 8 kts | 206° |
| 2026-04-18 10:53 | 38.07325 | 15.65198 | 84 ft | 11 kts | 237° |
| 2026-04-18 10:53 | 38.07287 | 15.65109 | 77 ft | 11 kts | 242° |
| 2026-04-18 10:53 | 38.07209 | 15.65097 | 72 ft | 15 kts | 151° |
| 2026-04-18 10:54 | 38.07133 | 15.65151 | 68 ft | 1 kts | 153° |
| 2026-04-18 10:54 | 38.07101 | 15.65171 | 67 ft | 7 kts | 153° |
| 2026-04-18 10:54 | 38.07045 | 15.65207 | 66 ft | 10 kts | 154° |
| 2026-04-18 10:54 | 38.06969 | 15.65254 | 64 ft | 13 kts | 154° |
| 2026-04-18 10:55 | 38.06876 | 15.65314 | 61 ft | 17 kts | 153° |
| 2026-04-18 10:55 | 38.06746 | 15.65401 | 59 ft | 24 kts | 152° |
| 2026-04-18 10:55 | 38.06614 | 15.65490 | 61 ft | 21 kts | 152° |
| 2026-04-18 10:55 | 38.06516 | 15.65572 | 66 ft | 11 kts | 125° |
| 2026-04-18 10:56 | 38.06482 | 15.65627 | 71 ft | 6 kts | 171° |
| 2026-04-18 10:56 | 38.06480 | 15.65578 | 67 ft | 0 kts | 323° |
| 2026-04-18 10:57 | 38.06484 | 15.65574 | 67 ft | 5 kts | 324° |
| 2026-04-18 10:57 | 38.06803 | 15.65367 | 60 ft | 105 kts | 333° |
| 2026-04-18 10:57 | 38.07706 | 15.64775 | 359 ft | 173 kts | 335° |
| 2026-04-18 10:58 | 38.08908 | 15.64125 | 1163 ft | 213 kts | 343° |
| 2026-04-18 10:58 | 38.10316 | 15.63493 | 2314 ft | 216 kts | 340° |
| 2026-04-18 10:58 | 38.11647 | 15.62791 | 3530 ft | 211 kts | 338° |
| 2026-04-18 10:58 | 38.12973 | 15.62037 | 4564 ft | 213 kts | 337° |
| 2026-04-18 10:59 | 38.14311 | 15.61275 | 5541 ft | 217 kts | 344° |